Time;durP1;ratioP1;P1;durP2;ratioP2;P2;SDS_P1;SDS_P2;PMS_P1;PMS_P2;Temp;Humidity;BMP_temperature;BMP_pressure;BME280_temperature;BME280_humidity;BME280_pressure;Samples;Min_cycle;Max_cycle;Signal;HPM_P1;HPM_P2
2022/01/17 00:00:36;;;;;;;;;;;;;;;-1.65;70.11;100452.81;5014552;28;884;-57
2022/01/17 00:03:03;;;;;;;;;;;;;;;-1.71;70.28;100454.84;5014463;28;1965;-57
2022/01/17 00:05:30;;;;;;;;;;;;;;;-1.71;70.11;100454.03;5014337;28;934;-57
2022/01/17 00:07:56;;;;;;;;;;;;;;;-1.77;70.22;100447.94;5014451;28;849;-58
2022/01/17 00:10:23;;;;;;;;;;;;;;;-1.70;69.99;100450.22;5014300;28;863;-57
2022/01/17 00:12:51;;;;;;;;;;;;;;;-1.68;70.29;100448.81;5014397;28;820;-57
2022/01/17 00:16:07;;;;;;;;;;;;;;;-1.72;70.27;100436.16;5014400;28;975;-57
2022/01/17 00:20:44;;;;;;;;;;;;;;;-1.96;70.43;100455.34;5014101;28;690;-57
2022/01/17 00:23:10;;;;;;;;;;;;;;;-2.08;70.93;100442.31;5014216;28;1878;-57
2022/01/17 00:25:36;;;;;;;;;;;;;;;-2.14;71.21;100441.63;5014344;28;825;-57
2022/01/17 00:28:04;;;;;;;;;;;;;;;-2.17;70.94;100450.34;5014113;28;845;-57
2022/01/17 00:30:30;;;;;;;;;;;;;;;-2.24;71.20;100458.09;5014321;28;842;-57
2022/01/17 00:32:57;;;;;;;;;;;;;;;-2.22;71.25;100460.47;5014152;28;857;-57
2022/01/17 00:35:24;;;;;;;;;;;;;;;-2.22;71.33;100449.66;5013146;28;1024;-57
2022/01/17 00:37:52;;;;;;;;;;;;;;;-2.25;71.34;100459.19;5013899;28;857;-57
2022/01/17 00:40:20;;;;;;;;;;;;;;;-2.25;71.46;100448.34;5014109;28;947;-57
2022/01/17 00:42:46;;;;;;;;;;;;;;;-2.26;71.28;100452.16;5013794;28;931;-57
2022/01/17 00:45:14;;;;;;;;;;;;;;;-2.19;71.15;100433.59;5014052;28;1890;-57
2022/01/17 00:47:41;;;;;;;;;;;;;;;-2.20;71.62;100434.69;5013623;28;1483;-57
2022/01/17 00:50:08;;;;;;;;;;;;;;;-2.22;71.34;100431.47;4996251;28;876;-57
2022/01/17 00:52:35;;;;;;;;;;;;;;;-2.26;71.46;100427.81;5013788;28;825;-57
2022/01/17 00:55:01;;;;;;;;;;;;;;;-2.38;71.44;100422.88;5013748;28;861;-57
2022/01/17 00:57:27;;;;;;;;;;;;;;;-2.37;71.77;100413.66;5013731;28;840;-57
2022/01/17 00:59:54;;;;;;;;;;;;;;;-2.36;71.84;100409.03;5014119;28;813;-57
2022/01/17 01:02:20;;;;;;;;;;;;;;;-2.32;71.85;100405.44;5014011;28;856;-57
2022/01/17 01:04:46;;;;;;;;;;;;;;;-2.24;71.37;100398.50;5013237;28;1914;-57
2022/01/17 01:07:12;;;;;;;;;;;;;;;-2.27;71.41;100391.78;5013291;28;817;-57
2022/01/17 01:09:50;;;;;;;;;;;;;;;-2.25;71.54;100386.06;5013221;28;833;-57
2022/01/17 01:12:16;;;;;;;;;;;;;;;-2.29;71.74;100376.94;5013099;28;901;-57
2022/01/17 01:14:43;;;;;;;;;;;;;;;-2.34;71.71;100369.72;5013142;28;920;-57
2022/01/17 01:17:20;;;;;;;;;;;;;;;-2.44;72.33;100358.31;5013013;28;971;-57
2022/01/17 01:19:57;;;;;;;;;;;;;;;-2.60;72.66;100347.78;5012928;28;975;-57
2022/01/17 01:27:55;;;;;;;;;;;;;;;-2.98;73.57;100344.44;5012942;28;648;-57
2022/01/17 01:30:25;;;;;;;;;;;;;;;-3.04;73.76;100345.63;5013195;28;828;-57
2022/01/17 01:32:56;;;;;;;;;;;;;;;-3.16;74.12;100330.69;5012727;28;931;-57
2022/01/17 01:35:25;;;;;;;;;;;;;;;-3.28;74.32;100327.66;5013088;28;953;-57
2022/01/17 01:37:52;;;;;;;;;;;;;;;-3.39;75.05;100326.22;5012760;28;903;-57
2022/01/17 01:40:19;;;;;;;;;;;;;;;-3.39;75.35;100315.41;5012793;28;848;-57
2022/01/17 01:42:45;;;;;;;;;;;;;;;-3.44;75.20;100312.78;5012682;28;836;-57
2022/01/17 01:45:15;;;;;;;;;;;;;;;-3.54;75.79;100309.16;5012067;28;1910;-57
2022/01/17 01:47:43;;;;;;;;;;;;;;;-3.56;76.19;100308.66;5012607;28;1441;-57
2022/01/17 01:50:10;;;;;;;;;;;;;;;-3.50;76.09;100306.66;5012309;28;942;-57
2022/01/17 01:52:38;;;;;;;;;;;;;;;-3.57;76.38;100304.34;5012368;28;865;-57
2022/01/17 01:55:05;;;;;;;;;;;;;;;-3.71;76.22;100300.81;5012435;28;814;-57
2022/01/17 01:57:31;;;;;;;;;;;;;;;-3.80;76.25;100297.16;5012410;28;829;-57
2022/01/17 01:59:58;;;;;;;;;;;;;;;-3.91;76.60;100294.59;5012229;28;927;-57
2022/01/17 02:02:24;;;;;;;;;;;;;;;-3.93;76.91;100291.38;5012332;28;801;-57
2022/01/17 02:04:50;;;;;;;;;;;;;;;-3.99;77.15;100287.19;5012373;28;1922;-57
2022/01/17 02:07:17;;;;;;;;;;;;;;;-4.18;76.99;100289.88;5012197;28;825;-57
2022/01/17 02:09:43;;;;;;;;;;;;;;;-4.36;77.50;100282.59;5012214;28;801;-57
2022/01/17 02:12:10;;;;;;;;;;;;;;;-4.41;77.47;100282.66;5012181;28;900;-57
2022/01/17 02:14:37;;;;;;;;;;;;;;;-4.48;78.07;100280.31;5012131;28;809;-57
2022/01/17 02:17:03;;;;;;;;;;;;;;;-4.52;78.40;100271.19;5012111;28;852;-57
2022/01/17 02:19:31;;;;;;;;;;;;;;;-4.53;78.24;100264.97;5011963;28;941;-57
2022/01/17 02:21:57;;;;;;;;;;;;;;;-4.58;78.51;100270.47;5011972;28;967;-57
2022/01/17 02:24:24;;;;;;;;;;;;;;;-4.58;78.86;100261.56;5011864;28;1890;-57
2022/01/17 02:26:51;;;;;;;;;;;;;;;-4.60;78.78;100264.53;5012299;28;824;-57
2022/01/17 02:29:18;;;;;;;;;;;;;;;-4.76;79.14;100265.81;5011945;28;1063;-57
2022/01/17 02:31:46;;;;;;;;;;;;;;;-4.96;79.75;100272.28;5011939;28;832;-57
2022/01/17 02:34:12;;;;;;;;;;;;;;;-5.10;80.32;100266.75;5011824;28;1047;-57
2022/01/17 02:36:39;;;;;;;;;;;;;;;-5.13;80.98;100267.34;5012119;28;896;-57
2022/01/17 02:39:05;;;;;;;;;;;;;;;-5.14;81.42;100263.84;5011783;28;853;-57
2022/01/17 02:41:33;;;;;;;;;;;;;;;-5.14;81.80;100269.22;5011681;28;970;-57
2022/01/17 02:44:02;;;;;;;;;;;;;;;-5.24;81.60;100258.56;5011708;28;1889;-57
2022/01/17 02:46:28;;;;;;;;;;;;;;;-5.21;82.02;100259.88;5011426;28;1076;-57
2022/01/17 02:48:56;;;;;;;;;;;;;;;-5.16;81.95;100251.75;5011649;28;840;-57
2022/01/17 02:51:22;;;;;;;;;;;;;;;-5.21;81.74;100244.50;5011697;28;875;-57
2022/01/17 02:53:49;;;;;;;;;;;;;;;-5.21;81.83;100241.81;5011702;28;864;-57
2022/01/17 02:56:16;;;;;;;;;;;;;;;-5.08;82.13;100243.00;5011456;28;940;-57
2022/01/17 02:58:42;;;;;;;;;;;;;;;-4.83;81.99;100244.59;5014875;28;892;-57
2022/01/17 03:01:11;;;;;;;;;;;;;;;-4.73;81.83;100246.38;5015579;28;891;-57
2022/01/17 03:03:37;;;;;;;;;;;;;;;-4.60;81.87;100242.16;5015793;28;1971;-57
2022/01/17 03:06:04;;;;;;;;;;;;;;;-4.60;81.39;100240.28;5015638;28;868;-57
2022/01/17 03:08:32;;;;;;;;;;;;;;;-4.66;81.33;100237.94;5015496;28;1046;-57
2022/01/17 03:11:00;;;;;;;;;;;;;;;-4.69;81.57;100238.50;5015532;28;846;-57
2022/01/17 03:13:31;;;;;;;;;;;;;;;-4.73;81.28;100246.38;5015394;28;866;-57
2022/01/17 03:16:00;;;;;;;;;;;;;;;-4.65;81.42;100236.81;5015441;28;880;-57
2022/01/17 03:18:28;;;;;;;;;;;;;;;-4.59;81.54;100239.16;5015145;28;931;-57
2022/01/17 03:20:55;;;;;;;;;;;;;;;-4.54;81.26;100233.72;5015335;28;903;-57
2022/01/17 03:23:21;;;;;;;;;;;;;;;-4.53;81.60;100226.41;5015307;28;1894;-57
2022/01/17 03:25:48;;;;;;;;;;;;;;;-4.48;81.37;100231.75;5015201;28;832;-57
2022/01/17 03:28:14;;;;;;;;;;;;;;;-4.44;81.31;100226.56;4997827;28;1222;-57
2022/01/17 03:30:41;;;;;;;;;;;;;;;-4.44;81.22;100223.84;5015351;28;808;-57
2022/01/17 03:33:11;;;;;;;;;;;;;;;-4.55;81.36;100223.19;4997505;28;887;-57
2022/01/17 03:35:38;;;;;;;;;;;;;;;-4.63;81.23;100215.75;5015248;28;949;-57
2022/01/17 03:38:06;;;;;;;;;;;;;;;-4.73;81.28;100222.09;5015086;28;828;-57
2022/01/17 03:40:33;;;;;;;;;;;;;;;-4.83;81.63;100214.16;5015211;28;848;-57
2022/01/17 03:42:59;;;;;;;;;;;;;;;-4.82;81.74;100223.81;5015165;28;844;-57
2022/01/17 03:45:26;;;;;;;;;;;;;;;-4.87;81.78;100215.81;5015101;28;1882;-57
2022/01/17 03:47:52;;;;;;;;;;;;;;;-4.98;82.00;100213.22;5014542;28;1348;-57
2022/01/17 03:50:19;;;;;;;;;;;;;;;-5.04;82.16;100211.69;5014866;28;888;-57
2022/01/17 03:52:46;;;;;;;;;;;;;;;-5.02;82.39;100214.09;5014695;28;1673;-57
2022/01/17 03:55:14;;;;;;;;;;;;;;;-5.06;82.45;100211.16;5014705;28;801;-56
2022/01/17 03:57:43;;;;;;;;;;;;;;;-5.18;82.35;100210.81;5014631;28;899;-57
2022/01/17 04:00:14;;;;;;;;;;;;;;;-5.27;82.76;100201.72;5014760;28;944;-57
2022/01/17 04:02:40;;;;;;;;;;;;;;;-5.29;83.10;100209.28;5014527;28;880;-57
2022/01/17 04:05:07;;;;;;;;;;;;;;;-5.26;83.34;100206.84;4996791;28;1914;-57
2022/01/17 04:07:34;;;;;;;;;;;;;;;-5.22;83.52;100199.78;5014612;28;876;-57
2022/01/17 04:10:00;;;;;;;;;;;;;;;-5.14;83.19;100209.94;5014119;28;833;-57
2022/01/17 04:12:27;;;;;;;;;;;;;;;-5.22;83.17;100199.78;5014392;28;852;-57
2022/01/17 04:14:55;;;;;;;;;;;;;;;-5.24;83.72;100204.66;5014394;28;837;-57
2022/01/17 04:17:26;;;;;;;;;;;;;;;-5.15;84.17;100205.63;5014228;28;859;-57
2022/01/17 04:20:03;;;;;;;;;;;;;;;-5.01;84.51;100208.44;5014362;28;950;-57
2022/01/17 04:22:36;;;;;;;;;;;;;;;-4.88;84.39;100206.94;5014133;28;868;-57
2022/01/17 04:25:03;;;;;;;;;;;;;;;-4.87;83.95;100202.31;5014030;28;1949;-57
2022/01/17 04:27:29;;;;;;;;;;;;;;;-4.54;84.63;100204.03;5014083;28;856;-57
2022/01/17 04:29:56;;;;;;;;;;;;;;;-4.24;83.82;100201.19;5014146;28;832;-57
2022/01/17 04:32:22;;;;;;;;;;;;;;;-4.01;82.95;100192.16;5014182;28;852;-57
2022/01/17 04:34:49;;;;;;;;;;;;;;;-4.02;82.51;100198.66;5014318;28;952;-57
2022/01/17 04:37:16;;;;;;;;;;;;;;;-4.06;82.27;100192.22;5014053;28;821;-57
2022/01/17 04:39:42;;;;;;;;;;;;;;;-4.06;82.52;100189.53;5014337;28;883;-57
2022/01/17 04:42:13;;;;;;;;;;;;;;;-3.87;82.22;100186.78;5014080;28;880;-57
2022/01/17 04:47:31;;;;;;;;;;;;;;;-3.81;81.39;100191.00;5013550;28;1227;-57
2022/01/17 04:49:57;;;;;;;;;;;;;;;-3.91;81.53;100191.19;5013610;28;809;-57
2022/01/17 04:52:25;;;;;;;;;;;;;;;-4.03;81.89;100190.84;5013575;28;904;-57
2022/01/17 04:54:59;;;;;;;;;;;;;;;-4.05;82.14;100193.84;5013599;28;928;-57
2022/01/17 04:57:25;;;;;;;;;;;;;;;-3.99;81.64;100195.38;5013448;28;932;-57
2022/01/17 04:59:52;;;;;;;;;;;;;;;-4.04;81.58;100192.75;5013349;28;963;-57
2022/01/17 05:02:18;;;;;;;;;;;;;;;-4.09;81.59;100192.84;5013368;28;837;-57
2022/01/17 05:04:45;;;;;;;;;;;;;;;-4.09;81.90;100189.34;5013458;28;1942;-57
2022/01/17 05:07:12;;;;;;;;;;;;;;;-4.13;81.80;100184.50;5013514;28;805;-57
2022/01/17 05:09:40;;;;;;;;;;;;;;;-4.16;82.45;100189.69;5013556;28;813;-57
2022/01/17 05:12:07;;;;;;;;;;;;;;;-4.26;81.87;100182.56;5013172;28;880;-57
2022/01/17 05:14:34;;;;;;;;;;;;;;;-4.44;81.97;100170.69;5013246;28;883;-57
2022/01/17 05:17:09;;;;;;;;;;;;;;;-4.55;82.86;100178.13;5013174;28;887;-57
2022/01/17 05:19:55;;;;;;;;;;;;;;;-4.61;83.27;100162.31;5012670;28;907;-57
2022/01/17 05:22:24;;;;;;;;;;;;;;;-4.58;83.47;100161.75;5013265;28;958;-57
2022/01/17 05:24:50;;;;;;;;;;;;;;;-4.63;83.67;100159.94;5013003;28;1980;-57
2022/01/17 05:27:17;;;;;;;;;;;;;;;-4.68;84.17;100151.09;5012942;28;872;-57
2022/01/17 05:29:46;;;;;;;;;;;;;;;-4.72;84.53;100157.06;5012926;28;813;-57
2022/01/17 05:32:12;;;;;;;;;;;;;;;-4.64;83.88;100161.00;5013292;28;896;-57
2022/01/17 05:34:40;;;;;;;;;;;;;;;-4.66;83.98;100163.19;5013442;28;941;-57
2022/01/17 05:37:07;;;;;;;;;;;;;;;-4.65;84.40;100162.13;5013033;28;820;-57
2022/01/17 05:39:34;;;;;;;;;;;;;;;-4.71;84.63;100165.97;5013034;28;880;-57
2022/01/17 05:42:00;;;;;;;;;;;;;;;-4.72;84.66;100162.44;5012983;28;915;-57
2022/01/17 05:44:27;;;;;;;;;;;;;;;-4.70;84.65;100162.16;5012865;28;1893;-56
2022/01/17 05:46:53;;;;;;;;;;;;;;;-4.46;85.54;100159.38;5012593;28;1378;-56
2022/01/17 05:49:20;;;;;;;;;;;;;;;-4.33;84.37;100157.88;5012538;28;836;-57
2022/01/17 05:51:46;;;;;;;;;;;;;;;-4.34;84.53;100148.94;5012576;28;888;-56
2022/01/17 05:54:13;;;;;;;;;;;;;;;-4.08;83.99;100153.94;5012447;28;852;-56
2022/01/17 05:56:39;;;;;;;;;;;;;;;-4.13;83.64;100151.31;5012468;28;829;-56
2022/01/17 05:59:06;;;;;;;;;;;;;;;-4.18;83.94;100138.72;4994741;28;924;-56
2022/01/17 06:01:32;;;;;;;;;;;;;;;-4.03;83.70;100143.06;5012389;28;833;-56
2022/01/17 06:03:59;;;;;;;;;;;;;;;-3.97;83.56;100144.56;5012232;28;1927;-56
2022/01/17 06:06:25;;;;;;;;;;;;;;;-3.85;83.65;100133.28;5012304;28;907;-56
2022/01/17 06:08:51;;;;;;;;;;;;;;;-3.78;83.02;100141.00;5012255;28;900;-56
2022/01/17 06:11:18;;;;;;;;;;;;;;;-3.77;82.89;100139.91;4994485;28;841;-56
2022/01/17 06:13:44;;;;;;;;;;;;;;;-3.75;83.31;100137.72;5012352;28;837;-56
2022/01/17 06:16:10;;;;;;;;;;;;;;;-3.73;83.23;100136.31;5011979;28;884;-56
2022/01/17 06:18:37;;;;;;;;;;;;;;;-3.70;82.78;100135.69;5011986;28;1005;-56
2022/01/17 06:21:04;;;;;;;;;;;;;;;-3.65;82.72;100134.78;5012023;28;813;-56
2022/01/17 06:23:30;;;;;;;;;;;;;;;-3.56;82.80;100141.13;5011987;28;1898;-56
2022/01/17 06:25:57;;;;;;;;;;;;;;;-3.18;82.01;100140.91;4994309;28;1369;-57
2022/01/17 06:28:23;;;;;;;;;;;;;;;-2.61;81.12;100134.28;5011950;28;809;-56
2022/01/17 06:30:50;;;;;;;;;;;;;;;-2.39;78.49;100137.00;5011897;28;879;-56
2022/01/17 06:33:16;;;;;;;;;;;;;;;-2.61;78.54;100131.56;5011681;28;900;-56
2022/01/17 06:35:44;;;;;;;;;;;;;;;-2.63;78.33;100134.56;5012311;28;1034;-56
2022/01/17 06:38:11;;;;;;;;;;;;;;;-2.62;78.32;100130.78;5011736;28;924;-56
2022/01/17 06:40:37;;;;;;;;;;;;;;;-2.72;78.47;100123.66;5011797;28;966;-56
2022/01/17 06:43:08;;;;;;;;;;;;;;;-2.83;78.24;100121.53;5011763;28;900;-56
2022/01/17 06:45:35;;;;;;;;;;;;;;;-2.83;78.97;100121.53;5011872;28;1878;-56
2022/01/17 06:48:02;;;;;;;;;;;;;;;-2.79;78.36;100123.31;5011537;28;1227;-56
2022/01/17 06:50:29;;;;;;;;;;;;;;;-2.84;78.49;100118.00;5011715;28;880;-56
2022/01/17 06:52:55;;;;;;;;;;;;;;;-2.91;77.85;100123.03;5011618;28;1037;-56
2022/01/17 06:55:22;;;;;;;;;;;;;;;-2.96;78.63;100123.16;5011688;28;880;-56
2022/01/17 06:57:47;;;;;;;;;;;;;;;-2.99;78.40;100124.53;5011693;28;852;-56
2022/01/17 07:00:14;;;;;;;;;;;;;;;-3.07;78.58;100114.47;5011527;28;892;-56
2022/01/17 07:02:41;;;;;;;;;;;;;;;-3.17;78.54;100122.78;4993993;28;828;-56
2022/01/17 07:05:08;;;;;;;;;;;;;;;-3.28;78.76;100114.88;5011642;28;1910;-56
2022/01/17 07:07:35;;;;;;;;;;;;;;;-3.30;79.15;100095.47;5011565;28;804;-56
2022/01/17 07:10:01;;;;;;;;;;;;;;;-3.25;79.20;100091.03;5011792;28;913;-56
2022/01/17 07:12:28;;;;;;;;;;;;;;;-3.16;79.34;100092.75;5011430;28;967;-56
2022/01/17 07:14:54;;;;;;;;;;;;;;;-3.01;79.15;100091.59;5011256;28;888;-56
2022/01/17 07:17:20;;;;;;;;;;;;;;;-2.77;79.71;100080.50;5011436;28;837;-56
2022/01/17 07:19:47;;;;;;;;;;;;;;;-2.54;79.34;100075.91;5011713;28;844;-56
2022/01/17 07:22:14;;;;;;;;;;;;;;;-2.35;78.26;100066.78;5011665;28;813;-56
2022/01/17 07:24:42;;;;;;;;;;;;;;;-2.19;78.09;100061.78;5011237;28;1889;-56
2022/01/17 07:27:09;;;;;;;;;;;;;;;-1.60;78.22;100051.50;5011311;28;880;-56
2022/01/17 07:29:35;;;;;;;;;;;;;;;-0.92;75.92;100043.75;5011322;28;782;-56
2022/01/17 07:32:02;;;;;;;;;;;;;;;-0.55;74.98;100049.66;5011128;28;892;-56
2022/01/17 07:34:28;;;;;;;;;;;;;;;-0.48;74.28;100052.69;5011383;28;955;-56
2022/01/17 07:36:55;;;;;;;;;;;;;;;-0.59;74.55;100043.28;5011313;28;875;-56
2022/01/17 07:39:21;;;;;;;;;;;;;;;-0.63;74.30;100037.69;5011124;28;983;-56
2022/01/17 07:41:48;;;;;;;;;;;;;;;-0.46;74.45;100030.66;5011239;28;817;-56
2022/01/17 07:44:19;;;;;;;;;;;;;;;-0.52;73.61;100008.28;5013267;28;1947;-56
2022/01/17 07:46:54;;;;;;;;;;;;;;;-0.88;73.78;100001.31;5014566;28;1369;-56
2022/01/17 07:49:22;;;;;;;;;;;;;;;-1.11;74.76;100011.56;5014610;28;893;-56
2022/01/17 07:51:51;;;;;;;;;;;;;;;-1.17;74.83;100029.09;5014925;28;923;-56
2022/01/17 07:54:18;;;;;;;;;;;;;;;-0.86;75.14;100018.06;5014932;28;1145;-56
2022/01/17 07:56:46;;;;;;;;;;;;;;;-0.18;73.66;100014.75;5014948;28;940;-56
2022/01/17 07:59:13;;;;;;;;;;;;;;;0.15;71.85;100036.69;5014898;28;907;-56
2022/01/17 08:01:40;;;;;;;;;;;;;;;0.54;72.26;100053.75;5015073;28;876;-56
2022/01/17 08:04:08;;;;;;;;;;;;;;;1.28;69.55;100070.53;5014764;28;1985;-56
2022/01/17 08:06:39;;;;;;;;;;;;;;;1.40;67.71;100070.56;5014603;28;903;-56
2022/01/17 08:09:14;;;;;;;;;;;;;;;1.35;68.00;100089.84;4997280;28;972;-55
2022/01/17 08:11:40;;;;;;;;;;;;;;;1.60;67.74;100117.19;5014407;28;891;-56
2022/01/17 08:14:06;;;;;;;;;;;;;;;1.81;69.00;100145.22;5014133;28;957;-56
2022/01/17 08:16:33;;;;;;;;;;;;;;;1.92;67.96;100145.63;5014303;28;931;-56
2022/01/17 08:18:59;;;;;;;;;;;;;;;1.83;69.18;100167.50;5014257;28;817;-56
2022/01/17 08:21:25;;;;;;;;;;;;;;;1.76;68.53;100163.72;5014192;28;908;-56
2022/01/17 08:23:54;;;;;;;;;;;;;;;1.82;69.01;100133.19;5014133;28;1898;-56
2022/01/17 08:26:21;;;;;;;;;;;;;;;1.78;68.36;100124.09;5014280;28;852;-56
2022/01/17 08:28:48;;;;;;;;;;;;;;;1.85;69.26;100115.34;5013840;28;1065;-56
2022/01/17 08:31:14;;;;;;;;;;;;;;;1.98;68.83;100097.91;5014064;28;896;-56
2022/01/17 08:33:42;;;;;;;;;;;;;;;2.02;69.70;100078.94;5013935;28;856;-56
2022/01/17 08:36:11;;;;;;;;;;;;;;;2.37;68.17;100040.31;5014401;28;985;-56
2022/01/17 08:38:38;;;;;;;;;;;;;;;2.38;67.49;100017.38;5013574;28;940;-56
2022/01/17 08:41:04;;;;;;;;;;;;;;;2.55;69.11;100022.59;5014059;28;801;-57
2022/01/17 08:43:31;;;;;;;;;;;;;;;2.29;68.54;100016.72;5013411;28;1886;-57
2022/01/17 08:45:57;;;;;;;;;;;;;;;1.71;69.85;99998.50;5013815;28;868;-56
2022/01/17 08:48:24;;;;;;;;;;;;;;;1.31;70.80;99987.38;5013520;28;1289;-56
2022/01/17 08:50:52;;;;;;;;;;;;;;;1.16;71.28;99970.53;5013813;28;825;-56
2022/01/17 08:53:19;;;;;;;;;;;;;;;0.90;72.23;99962.59;5013460;28;927;-56
2022/01/17 08:55:46;;;;;;;;;;;;;;;0.65;73.23;99967.13;5012499;28;821;-57
2022/01/17 08:58:13;;;;;;;;;;;;;;;0.65;73.37;99974.50;5013607;28;835;-56
2022/01/17 09:00:40;;;;;;;;;;;;;;;0.89;74.35;99962.94;5013439;28;865;-56
2022/01/17 09:03:07;;;;;;;;;;;;;;;1.48;73.71;99931.91;5013386;28;923;-56
2022/01/17 09:05:34;;;;;;;;;;;;;;;1.97;72.68;99910.16;5013198;28;2001;-56
2022/01/17 09:08:01;;;;;;;;;;;;;;;1.93;71.13;99920.13;5013386;28;855;-56
2022/01/17 09:10:28;;;;;;;;;;;;;;;1.96;71.32;99892.19;5013277;28;829;-56
2022/01/17 09:12:56;;;;;;;;;;;;;;;2.14;70.45;99904.44;5013073;28;1250;-56
2022/01/17 09:15:23;;;;;;;;;;;;;;;2.32;70.64;99915.09;5013187;28;868;-56
2022/01/17 09:17:49;;;;;;;;;;;;;;;2.37;68.49;99936.66;5013181;28;813;-56
2022/01/17 09:20:16;;;;;;;;;;;;;;;2.21;68.51;99926.47;5013111;28;824;-56
2022/01/17 09:22:42;;;;;;;;;;;;;;;2.07;70.04;99912.41;5012947;28;991;-56
2022/01/17 09:25:09;;;;;;;;;;;;;;;2.19;69.67;99919.78;5012751;28;1902;-57
2022/01/17 09:27:36;;;;;;;;;;;;;;;2.38;69.24;99927.34;5012955;28;900;-57
2022/01/17 09:30:07;;;;;;;;;;;;;;;2.59;69.21;99919.81;5012935;28;876;-57
2022/01/17 09:32:34;;;;;;;;;;;;;;;2.79;68.45;99917.22;5012923;28;915;-57
2022/01/17 09:35:01;;;;;;;;;;;;;;;2.96;68.53;99911.47;5012993;28;937;-56
2022/01/17 09:37:27;;;;;;;;;;;;;;;2.88;65.09;99919.81;5012847;28;892;-56
2022/01/17 09:39:54;;;;;;;;;;;;;;;2.81;66.64;99921.19;5012679;28;998;-56
2022/01/17 09:42:20;;;;;;;;;;;;;;;2.99;65.71;99904.53;5012617;28;856;-57
2022/01/17 09:44:45;;;;;;;;;;;;;;;3.26;64.02;99883.78;4994856;28;1894;-58
2022/01/17 09:47:13;;;;;;;;;;;;;;;3.22;63.16;99878.22;5012365;28;1254;-59
2022/01/17 09:49:50;;;;;;;;;;;;;;;3.14;63.02;99887.38;4995250;28;950;-58
2022/01/17 09:52:34;;;;;;;;;;;;;;;3.37;64.37;99884.84;5012572;28;897;-57
2022/01/17 09:55:02;;;;;;;;;;;;;;;3.59;61.36;99871.72;5012479;28;935;-57
2022/01/17 09:57:30;;;;;;;;;;;;;;;3.42;62.35;99861.94;5012394;28;801;-56
2022/01/17 09:59:57;;;;;;;;;;;;;;;3.36;62.78;99875.06;5012658;28;878;-57
2022/01/17 10:02:24;;;;;;;;;;;;;;;3.40;62.97;99875.16;5012740;28;805;-57
2022/01/17 10:04:50;;;;;;;;;;;;;;;3.41;62.77;99874.00;5012844;28;1973;-58
2022/01/17 10:07:19;;;;;;;;;;;;;;;3.38;63.03;99858.31;5011791;28;959;-56
2022/01/17 10:09:53;;;;;;;;;;;;;;;3.42;62.71;99840.88;5012572;28;896;-56
2022/01/17 10:12:20;;;;;;;;;;;;;;;3.47;63.65;99843.31;5012163;28;833;-58
2022/01/17 10:15:04;;;;;;;;;;;;;;;3.47;62.87;99837.84;5012104;28;891;-58
2022/01/17 10:17:47;;;;;;;;;;;;;;;3.42;62.69;99805.34;5011927;28;970;-58
2022/01/17 10:20:17;;;;;;;;;;;;;;;3.50;63.50;99819.16;5012025;28;816;-58
2022/01/17 10:22:53;;;;;;;;;;;;;;;3.53;62.19;99813.00;5012071;28;967;-59
2022/01/17 10:28:47;;;;;;;;;;;;;;;3.39;62.13;99797.06;5011936;28;707;-59
2022/01/17 10:34:53;;;;;;;;;;;;;;;3.47;62.05;99804.28;5011719;28;1270;-57
2022/01/17 10:37:12;;;;;;;;;;;;;;;3.54;62.38;99755.28;5011873;28;624;-59
2022/01/17 10:39:59;;;;;;;;;;;;;;;3.77;61.20;99782.69;5011683;28;893;-57
2022/01/17 10:42:25;;;;;;;;;;;;;;;3.93;61.46;99773.69;5011628;28;950;-58
2022/01/17 10:44:52;;;;;;;;;;;;;;;4.27;60.60;99770.09;5011710;28;1890;-58
2022/01/17 10:47:23;;;;;;;;;;;;;;;4.35;59.48;99767.47;5011589;28;1424;-58
2022/01/17 10:49:54;;;;;;;;;;;;;;;4.43;59.09;99769.19;5011736;28;1060;-57
2022/01/17 10:52:31;;;;;;;;;;;;;;;4.58;59.52;99773.00;5011770;28;828;-59
2022/01/17 10:55:12;;;;;;;;;;;;;;;4.59;58.45;99760.91;5011705;28;895;-59
2022/01/17 10:57:50;;;;;;;;;;;;;;;4.73;58.52;99763.09;4993822;28;1197;-58
2022/01/17 11:00:18;;;;;;;;;;;;;;;4.74;57.77;99773.72;4994408;28;868;-59
2022/01/17 11:02:50;;;;;;;;;;;;;;;5.01;57.72;99754.59;5011535;28;813;-58
2022/01/17 11:05:19;;;;;;;;;;;;;;;5.04;56.63;99746.44;4977761;28;1914;-59
2022/01/17 11:07:46;;;;;;;;;;;;;;;5.01;56.54;99744.41;5011810;28;884;-59
2022/01/17 11:10:15;;;;;;;;;;;;;;;5.07;57.91;99734.72;5011423;28;917;-58
2022/01/17 11:12:41;;;;;;;;;;;;;;;5.19;55.93;99731.03;5011402;28;861;-59
2022/01/17 11:15:10;;;;;;;;;;;;;;;5.06;56.97;99724.16;5011514;28;915;-60
2022/01/17 11:17:39;;;;;;;;;;;;;;;5.16;56.37;99715.31;5011591;28;903;-59
2022/01/17 11:20:11;;;;;;;;;;;;;;;5.22;56.41;99704.81;5015810;28;824;-58
2022/01/17 11:22:39;;;;;;;;;;;;;;;5.22;56.40;99699.34;5015240;28;951;-58
2022/01/17 11:25:07;;;;;;;;;;;;;;;5.25;55.20;99684.94;5015222;28;1886;-58
2022/01/17 11:27:38;;;;;;;;;;;;;;;5.18;56.98;99690.28;5015230;28;813;-58
2022/01/17 11:30:05;;;;;;;;;;;;;;;5.30;57.02;99692.81;5015236;28;924;-59
2022/01/17 11:32:32;;;;;;;;;;;;;;;5.48;57.31;99702.09;5015066;28;864;-58
2022/01/17 11:35:00;;;;;;;;;;;;;;;5.69;55.45;99693.34;5015196;28;940;-58
2022/01/17 11:37:27;;;;;;;;;;;;;;;5.59;56.15;99707.72;5015157;28;904;-58
2022/01/17 11:39:58;;;;;;;;;;;;;;;5.70;55.76;99699.63;4997336;28;1356;-59
2022/01/17 11:42:36;;;;;;;;;;;;;;;5.84;54.87;99704.50;4997504;28;892;-59
2022/01/17 11:45:06;;;;;;;;;;;;;;;5.95;55.27;99710.16;5014844;28;1887;-59
2022/01/17 11:47:51;;;;;;;;;;;;;;;5.98;53.77;99699.22;5014790;28;1267;-58
2022/01/17 11:50:41;;;;;;;;;;;;;;;5.96;55.41;99690.59;4997204;28;1330;-58
2022/01/17 11:53:08;;;;;;;;;;;;;;;6.05;54.67;99690.28;4997050;28;1383;-58
2022/01/17 11:55:44;;;;;;;;;;;;;;;5.98;54.71;99679.25;5014736;28;837;-58
2022/01/17 11:58:22;;;;;;;;;;;;;;;6.26;54.85;99662.28;5014611;28;904;-58
2022/01/17 12:01:00;;;;;;;;;;;;;;;6.50;53.46;99658.97;5014660;28;909;-58
2022/01/17 12:03:51;;;;;;;;;;;;;;;6.41;53.71;99665.97;5014529;28;1906;-57
2022/01/17 12:06:18;;;;;;;;;;;;;;;6.42;53.65;99646.38;5002541;28;1233;-59
2022/01/17 12:08:43;;;;;;;;;;;;;;;6.42;53.23;99645.56;5014629;28;821;-58
2022/01/17 12:11:24;;;;;;;;;;;;;;;6.53;53.18;99666.47;5014458;28;892;-58
2022/01/17 12:13:53;;;;;;;;;;;;;;;6.56;53.80;99658.66;5014203;28;873;-58
2022/01/17 12:16:51;;;;;;;;;;;;;;;6.72;53.19;99659.16;5014300;28;915;-58
2022/01/17 12:19:35;;;;;;;;;;;;;;;6.77;51.81;99650.59;5012930;28;1572;-58
2022/01/17 12:22:05;;;;;;;;;;;;;;;6.77;53.10;99641.56;5014155;28;884;-58
2022/01/17 12:24:39;;;;;;;;;;;;;;;6.94;52.83;99638.16;5014316;28;1947;-58
2022/01/17 12:27:11;;;;;;;;;;;;;;;7.01;52.06;99621.72;5014012;28;901;-59
2022/01/17 12:29:52;;;;;;;;;;;;;;;7.05;51.78;99625.28;5013900;28;876;-58
2022/01/17 12:32:25;;;;;;;;;;;;;;;7.10;51.82;99618.63;4996434;28;1346;-58
2022/01/17 12:34:59;;;;;;;;;;;;;;;7.17;51.49;99621.44;5014158;28;917;-59
2022/01/17 12:37:45;;;;;;;;;;;;;;;7.40;51.83;99621.16;5014417;28;805;-59
2022/01/17 12:40:25;;;;;;;;;;;;;;;7.61;51.24;99608.69;5013644;28;932;-58
2022/01/17 12:42:55;;;;;;;;;;;;;;;7.73;51.30;99619.34;5013887;28;820;-58
2022/01/17 12:45:22;;;;;;;;;;;;;;;7.83;49.96;99632.34;5013843;28;1886;-58
2022/01/17 12:47:50;;;;;;;;;;;;;;;7.89;50.65;99639.03;5013681;28;1301;-58
2022/01/17 12:50:20;;;;;;;;;;;;;;;8.14;49.67;99621.81;5013751;28;864;-58
2022/01/17 12:52:49;;;;;;;;;;;;;;;8.32;49.93;99610.81;5013811;28;947;-58
2022/01/17 12:55:15;;;;;;;;;;;;;;;8.51;49.48;99606.91;5013644;28;892;-58
2022/01/17 12:57:43;;;;;;;;;;;;;;;8.76;48.76;99582.91;5013475;28;840;-58
2022/01/17 13:00:11;;;;;;;;;;;;;;;9.11;49.09;99584.03;5013488;28;868;-58
2022/01/17 13:02:46;;;;;;;;;;;;;;;9.14;46.50;99576.94;5013443;28;852;-58
2022/01/17 13:05:12;;;;;;;;;;;;;;;9.07;47.23;99575.00;5013337;28;1918;-59
2022/01/17 13:07:42;;;;;;;;;;;;;;;9.06;47.25;99576.16;5013317;28;848;-59
2022/01/17 13:10:10;;;;;;;;;;;;;;;9.12;47.53;99571.03;5013296;28;935;-59
2022/01/17 13:12:35;;;;;;;;;;;;;;;9.31;48.01;99570.56;5013404;28;916;-59
2022/01/17 13:15:02;;;;;;;;;;;;;;;9.52;47.44;99564.19;5013275;28;896;-59
2022/01/17 13:17:33;;;;;;;;;;;;;;;9.65;46.92;99547.19;5013230;28;824;-59
2022/01/17 13:19:59;;;;;;;;;;;;;;;9.76;46.56;99551.44;5013166;28;883;-59
2022/01/17 13:22:26;;;;;;;;;;;;;;;9.83;45.76;99545.09;5013150;28;896;-59
2022/01/17 13:25:02;;;;;;;;;;;;;;;9.92;45.96;99534.41;5012861;28;1895;-59
2022/01/17 13:27:34;;;;;;;;;;;;;;;10.07;46.42;99526.00;5012969;28;832;-59